Time;durP1;ratioP1;P1;durP2;ratioP2;P2;SDS_P1;SDS_P2;PMS_P1;PMS_P2;Temp;Humidity;BMP_temperature;BMP_pressure;BME280_temperature;BME280_humidity;BME280_pressure;Samples;Min_cycle;Max_cycle;Signal;HPM_P1;HPM_P2
2023/07/23 00:01:20;;;;;;;11.85;9.38;;;;;;;14.18;100.00;100843.84;6139568;23;20025;-67
2023/07/23 00:03:45;;;;;;;10.52;8.95;;;;;;;14.17;100.00;100839.47;6139059;23;20016;-67
2023/07/23 00:06:10;;;;;;;15.25;10.30;;;;;;;14.18;100.00;100832.44;6187650;23;20004;-67
2023/07/23 00:08:36;;;;;;;11.52;9.95;;;;;;;14.17;100.00;100831.56;6138671;23;20012;-67
2023/07/23 00:11:01;;;;;;;15.18;9.63;;;;;;;14.16;100.00;100829.81;6136447;23;20015;-67
2023/07/23 00:13:27;;;;;;;10.32;9.02;;;;;;;14.15;100.00;100822.84;6164172;23;20087;-67
2023/07/23 00:15:52;;;;;;;11.35;9.55;;;;;;;14.13;100.00;100814.09;6188387;23;20012;-67
2023/07/23 00:18:18;;;;;;;11.00;9.40;;;;;;;14.15;100.00;100812.31;6163909;23;20004;-67
2023/07/23 00:20:43;;;;;;;14.32;10.05;;;;;;;14.16;100.00;100805.25;6163482;23;20016;-67
2023/07/23 00:23:09;;;;;;;13.80;10.52;;;;;;;14.13;100.00;100803.56;6139018;23;20091;-67
2023/07/23 00:25:34;;;;;;;11.52;10.25;;;;;;;14.16;100.00;100810.53;6163587;23;20012;-67
2023/07/23 00:28:00;;;;;;;12.85;9.25;;;;;;;14.12;100.00;100809.75;6188767;23;20004;-67
2023/07/23 00:30:25;;;;;;;11.85;9.52;;;;;;;14.13;100.00;100806.19;6164017;23;20012;-67
2023/07/23 00:32:51;;;;;;;10.10;8.98;;;;;;;14.13;100.00;100793.03;6188069;23;20347;-67
2023/07/23 00:35:16;;;;;;;10.32;8.93;;;;;;;14.13;100.00;100792.16;6163798;23;20039;-68
2023/07/23 00:37:42;;;;;;;11.48;9.10;;;;;;;14.12;100.00;100780.78;6139114;23;20015;-67
2023/07/23 00:40:08;;;;;;;10.52;8.90;;;;;;;14.13;100.00;100773.72;6188121;23;20012;-67
2023/07/23 00:42:34;;;;;;;10.73;8.98;;;;;;;14.13;100.00;100776.34;6188618;23;20089;-67
2023/07/23 00:44:59;;;;;;;11.30;8.63;;;;;;;14.13;99.96;100777.22;6139002;23;20009;-67
2023/07/23 00:47:25;;;;;;;12.98;9.48;;;;;;;14.12;99.94;100764.06;6139061;23;20095;-67
2023/07/23 00:49:51;;;;;;;10.13;9.13;;;;;;;14.12;99.83;100759.69;6163825;23;20028;-67
2023/07/23 00:52:17;;;;;;;12.52;8.80;;;;;;;14.12;99.76;100751.78;6139315;23;20079;-67
2023/07/23 00:54:43;;;;;;;10.82;8.70;;;;;;;14.11;99.65;100752.69;6163419;23;20016;-67
2023/07/23 00:57:10;;;;;;;13.05;9.00;;;;;;;14.10;99.86;100747.47;6163153;23;20004;-67
2023/07/23 00:59:37;;;;;;;9.63;8.60;;;;;;;14.09;99.68;100748.34;6188081;23;20422;-67
2023/07/23 01:02:03;;;;;;;11.48;8.63;;;;;;;14.09;99.78;100743.09;6188069;23;20028;-67
2023/07/23 01:04:29;;;;;;;12.13;8.85;;;;;;;14.06;99.57;100735.28;6163300;23;20021;-67
2023/07/23 01:06:58;;;;;;;12.18;9.75;;;;;;;14.05;99.37;100731.78;6193746;23;20070;-68
2023/07/23 01:09:24;;;;;;;11.55;9.18;;;;;;;14.05;99.42;100729.16;6217880;23;20004;-67
2023/07/23 01:11:52;;;;;;;10.80;9.35;;;;;;;14.03;99.33;100728.31;6218013;23;20087;-67
2023/07/23 01:14:17;;;;;;;12.38;9.15;;;;;;;14.04;99.02;100716.88;6193209;22;20057;-67
2023/07/23 01:16:44;;;;;;;10.77;9.13;;;;;;;14.01;99.38;100720.44;6192758;23;20007;-67
2023/07/23 01:19:11;;;;;;;11.65;9.57;;;;;;;14.01;99.34;100717.81;6217484;23;20000;-67
2023/07/23 01:21:37;;;;;;;12.48;9.60;;;;;;;14.00;99.33;100707.31;6217454;23;20422;-67
2023/07/23 01:24:03;;;;;;;15.02;10.25;;;;;;;13.96;99.46;100705.69;6167898;22;20387;-67
2023/07/23 01:26:29;;;;;;;11.18;10.00;;;;;;;13.99;99.29;100703.84;6192453;23;20004;-67
2023/07/23 01:28:54;;;;;;;12.98;10.02;;;;;;;14.00;99.49;100697.63;6217209;23;20061;-67
2023/07/23 01:31:20;;;;;;;13.38;10.50;;;;;;;14.00;99.24;100694.16;6191830;23;20018;-67
2023/07/23 01:33:46;;;;;;;11.30;10.00;;;;;;;14.01;99.11;100695.88;6192366;23;20422;-67
2023/07/23 01:36:12;;;;;;;13.88;10.48;;;;;;;14.03;99.09;100691.44;6193011;23;20019;-67
2023/07/23 01:38:37;;;;;;;14.77;10.77;;;;;;;13.98;99.22;100681.03;6218493;23;20008;-67
2023/07/23 01:41:04;;;;;;;11.55;9.82;;;;;;;13.97;99.46;100679.28;6217032;23;20019;-67
2023/07/23 01:43:30;;;;;;;12.07;10.75;;;;;;;14.01;99.62;100680.09;6218006;23;20330;-67
2023/07/23 01:45:55;;;;;;;11.25;10.07;;;;;;;14.00;99.53;100671.28;6192348;23;20008;-67
2023/07/23 01:48:22;;;;;;;11.48;10.27;;;;;;;13.99;99.76;100669.59;6167910;23;20023;-67
2023/07/23 01:50:47;;;;;;;12.38;10.60;;;;;;;14.01;99.48;100672.19;6192272;23;20010;-67
2023/07/23 01:53:13;;;;;;;13.98;10.38;;;;;;;14.04;99.45;100661.53;6193057;23;20054;-67
2023/07/23 01:55:38;;;;;;;12.40;10.35;;;;;;;14.06;99.11;100664.97;6194469;23;20334;-67
2023/07/23 01:58:04;;;;;;;12.60;10.15;;;;;;;14.04;99.03;100651.00;6169613;23;20487;-67
2023/07/23 02:00:29;;;;;;;14.15;10.13;;;;;;;14.07;99.60;100653.56;6194186;23;20022;-67
2023/07/23 02:02:55;;;;;;;12.63;10.30;;;;;;;14.09;99.26;100657.00;6195064;23;20020;-67
2023/07/23 02:05:23;;;;;;;12.38;10.45;;;;;;;14.10;99.15;100645.56;6194134;23;20326;-67
2023/07/23 02:07:49;;;;;;;11.70;10.25;;;;;;;14.09;98.87;100643.81;6194272;23;20101;-67
2023/07/23 02:10:17;;;;;;;18.20;10.55;;;;;;;14.12;98.56;100633.22;6194212;23;20012;-67
2023/07/23 02:12:43;;;;;;;12.98;10.60;;;;;;;14.15;98.73;100629.59;6220041;23;20019;-67
2023/07/23 02:15:09;;;;;;;14.18;11.10;;;;;;;14.15;98.83;100635.75;6218991;23;20004;-67
2023/07/23 02:17:35;;;;;;;12.70;10.20;;;;;;;14.19;98.58;100626.84;6170205;23;20018;-67
2023/07/23 02:20:01;;;;;;;11.73;10.02;;;;;;;14.21;98.62;100627.66;6219291;23;20334;-67
2023/07/23 02:22:26;;;;;;;12.55;9.88;;;;;;;14.25;98.03;100623.16;6194840;23;20008;-67
2023/07/23 02:24:52;;;;;;;11.23;9.75;;;;;;;14.28;98.26;100619.53;6193334;23;20018;-67
2023/07/23 02:27:17;;;;;;;12.05;10.35;;;;;;;14.29;97.88;100613.38;6194673;23;20012;-67
2023/07/23 02:29:43;;;;;;;12.13;9.98;;;;;;;14.31;97.79;100609.78;6194629;23;20008;-67
2023/07/23 02:32:10;;;;;;;12.65;8.93;;;;;;;14.36;96.97;100612.28;6169708;23;20012;-67
2023/07/23 02:34:36;;;;;;;10.50;8.95;;;;;;;14.37;97.08;100606.09;6218860;23;20079;-67
2023/07/23 02:37:01;;;;;;;12.48;8.90;;;;;;;14.40;96.66;100600.72;6193433;23;20059;-67
2023/07/23 02:39:27;;;;;;;12.02;8.73;;;;;;;14.44;95.64;100601.47;6192885;23;20331;-67
2023/07/23 02:41:52;;;;;;;10.25;8.90;;;;;;;14.46;95.50;100604.94;6193444;23;20008;-67
2023/07/23 02:44:17;;;;;;;12.45;8.55;;;;;;;14.49;94.67;100594.28;6169321;22;20012;-67
2023/07/23 02:46:43;;;;;;;9.43;7.85;;;;;;;14.53;94.44;100601.19;6169975;23;20011;-67
2023/07/23 02:49:08;;;;;;;10.07;8.13;;;;;;;14.54;93.41;100595.88;6193653;23;20008;-67
2023/07/23 02:51:34;;;;;;;12.05;7.80;;;;;;;14.61;91.72;100598.31;6193401;23;20295;-67
2023/07/23 02:53:59;;;;;;;13.55;8.30;;;;;;;14.67;91.24;100590.25;6169050;23;20032;-67
2023/07/23 02:56:24;;;;;;;9.85;8.02;;;;;;;14.71;90.66;100597.13;6169506;23;20019;-67
2023/07/23 02:58:50;;;;;;;12.63;7.63;;;;;;;14.72;90.92;100585.66;6168713;23;20016;-67
2023/07/23 03:01:15;;;;;;;12.55;7.53;;;;;;;14.75;90.05;100584.72;6168306;23;20039;-67
2023/07/23 03:03:41;;;;;;;10.55;7.93;;;;;;;14.77;89.81;100583.75;6168510;23;20012;-67
2023/07/23 03:06:07;;;;;;;10.38;7.38;;;;;;;14.83;88.27;100580.91;6168653;23;20332;-67
2023/07/23 03:08:33;;;;;;;8.68;7.22;;;;;;;14.84;88.64;100580.00;6194502;23;20038;-67
2023/07/23 03:10:58;;;;;;;9.02;7.22;;;;;;;14.86;87.93;100577.31;6169232;23;20008;-67
2023/07/23 03:13:23;;;;;;;9.43;7.05;;;;;;;14.85;87.66;100573.78;6169889;23;20334;-67
2023/07/23 03:15:52;;;;;;;9.20;6.82;;;;;;;14.90;86.88;100569.22;6168397;23;20012;-67
2023/07/23 03:18:17;;;;;;;8.30;5.88;;;;;;;14.95;86.56;100573.50;6218220;23;20004;-67
2023/07/23 03:20:43;;;;;;;11.30;6.88;;;;;;;14.94;86.70;100571.75;6169210;23;20019;-67
2023/07/23 03:23:09;;;;;;;8.95;6.53;;;;;;;14.98;85.56;100574.22;6168995;23;20008;-67
2023/07/23 03:25:34;;;;;;;9.60;5.78;;;;;;;15.08;83.45;100569.50;6193373;23;20038;-66
2023/07/23 03:27:59;;;;;;;12.50;5.90;;;;;;;15.07;84.32;100568.66;6193291;23;20392;-67
2023/07/23 03:30:26;;;;;;;8.40;5.88;;;;;;;15.10;83.95;100567.69;6169174;23;20450;-67
2023/07/23 03:32:52;;;;;;;12.77;6.28;;;;;;;15.12;83.40;100565.00;6193425;23;20295;-67
2023/07/23 03:35:19;;;;;;;10.40;6.10;;;;;;;15.13;83.05;100564.06;6168870;23;20012;-67
2023/07/23 03:37:46;;;;;;;9.98;6.05;;;;;;;15.14;83.21;100566.66;6168399;23;20441;-67
2023/07/23 03:40:11;;;;;;;7.75;6.05;;;;;;;15.14;83.38;100569.31;6192750;23;20483;-67
2023/07/23 03:42:37;;;;;;;7.82;5.57;;;;;;;15.13;83.53;100564.94;6194188;23;20040;-67
2023/07/23 03:45:03;;;;;;;8.60;5.22;;;;;;;15.14;82.75;100565.78;6193331;23;20087;-67
2023/07/23 03:47:29;;;;;;;11.13;5.90;;;;;;;15.12;83.50;100573.75;6218674;23;20087;-67
2023/07/23 03:49:54;;;;;;;7.20;5.45;;;;;;;15.14;81.92;100563.16;6193118;23;20036;-67
2023/07/23 03:52:20;;;;;;;11.63;5.03;;;;;;;15.14;82.87;100561.38;6193505;23;20012;-67
2023/07/23 03:54:45;;;;;;;7.18;4.68;;;;;;;15.15;82.35;100557.81;6193252;23;20326;-67
2023/07/23 03:57:11;;;;;;;9.13;5.05;;;;;;;15.18;81.79;100562.97;6218554;23;20062;-67
2023/07/23 03:59:41;;;;;;;6.75;4.95;;;;;;;15.16;82.44;100556.06;6191679;23;20463;-67
2023/07/23 04:02:07;;;;;;;8.85;5.30;;;;;;;15.19;81.55;100562.06;6217243;23;20023;-67
2023/07/23 04:04:34;;;;;;;8.90;5.10;;;;;;;15.18;81.38;100555.06;6193194;23;20338;-67
2023/07/23 04:06:59;;;;;;;7.90;5.05;;;;;;;15.22;80.83;100566.38;6218972;23;20003;-67
2023/07/23 04:09:25;;;;;;;8.00;4.95;;;;;;;15.22;80.87;100556.69;6218021;23;20057;-67
2023/07/23 04:11:50;;;;;;;8.18;5.00;;;;;;;15.20;81.66;100555.00;6193812;23;20015;-67
2023/07/23 04:14:16;;;;;;;7.60;5.07;;;;;;;15.23;80.87;100561.06;6218830;22;20003;-67
2023/07/23 04:16:42;;;;;;;7.90;4.93;;;;;;;15.24;80.37;100560.13;6193392;23;20019;-67
2023/07/23 04:19:07;;;;;;;7.60;5.32;;;;;;;15.27;80.27;100569.75;6193085;23;20046;-67
2023/07/23 04:21:32;;;;;;;7.32;4.75;;;;;;;15.28;79.93;100562.66;6193486;23;20065;-67
2023/07/23 04:24:00;;;;;;;6.75;5.00;;;;;;;15.30;80.17;100560.81;6218170;23;20018;-67
2023/07/23 04:26:27;;;;;;;8.80;4.60;;;;;;;15.32;79.71;100559.00;6194255;23;20083;-67
2023/07/23 04:28:53;;;;;;;6.78;4.95;;;;;;;15.35;79.75;100558.88;6216833;23;20066;-67
2023/07/23 04:31:19;;;;;;;6.80;4.63;;;;;;;15.39;79.64;100563.16;6217761;23;20008;-67
2023/07/23 04:33:44;;;;;;;5.93;4.22;;;;;;;15.42;79.19;100563.03;6190913;23;20011;-67
2023/07/23 04:36:12;;;;;;;12.50;4.63;;;;;;;15.44;79.44;100569.09;6193267;23;20012;-67
2023/07/23 04:38:38;;;;;;;7.43;4.32;;;;;;;15.46;78.62;100571.69;6217959;23;20389;-67
2023/07/23 04:41:03;;;;;;;9.43;4.82;;;;;;;15.47;78.88;100563.72;6218150;23;20012;-67
2023/07/23 04:43:29;;;;;;;7.35;4.40;;;;;;;15.53;78.06;100562.63;6193537;23;20426;-67
2023/07/23 04:45:54;;;;;;;7.22;4.20;;;;;;;15.53;78.22;100554.69;6217199;23;20015;-67
2023/07/23 04:48:21;;;;;;;8.02;5.25;;;;;;;15.57;78.27;100564.22;6193603;23;20004;-67
2023/07/23 04:50:57;;;;;;;5.75;3.90;;;;;;;15.62;77.78;100566.72;6192715;23;20012;-67
2023/07/23 04:53:23;;;;;;;6.95;4.68;;;;;;;15.64;77.28;100567.53;6217122;23;20000;-66
2023/07/23 04:55:58;;;;;;;8.00;4.38;;;;;;;15.65;77.30;100564.81;6192420;23;20477;-67
2023/07/23 04:58:25;;;;;;;6.80;4.38;;;;;;;15.68;76.54;100562.06;6217626;23;20003;-66
2023/07/23 05:00:51;;;;;;;5.88;4.28;;;;;;;15.70;76.68;100564.63;6167569;23;20461;-66
2023/07/23 05:03:17;;;;;;;6.53;4.30;;;;;;;15.75;75.30;100560.06;6167695;23;20008;-66
2023/07/23 05:05:45;;;;;;;5.82;3.60;;;;;;;15.74;76.35;100559.19;6217527;23;20019;-66
2023/07/23 05:08:11;;;;;;;6.70;3.95;;;;;;;15.80;75.10;100555.47;6193095;23;20012;-67
2023/07/23 05:10:36;;;;;;;8.27;4.10;;;;;;;15.82;75.13;100553.66;6167948;23;20050;-66
2023/07/23 05:13:02;;;;;;;7.45;3.90;;;;;;;15.83;75.74;100555.38;6193425;23;20039;-68
2023/07/23 05:15:27;;;;;;;8.20;4.00;;;;;;;15.83;75.59;100550.09;6167680;23;20457;-66
2023/07/23 05:17:53;;;;;;;7.72;4.50;;;;;;;15.84;75.51;100556.22;6192281;23;20012;-66
2023/07/23 05:20:19;;;;;;;7.72;3.47;;;;;;;15.85;75.93;100553.53;6192672;23;20364;-67
2023/07/23 05:22:44;;;;;;;5.63;4.15;;;;;;;15.85;75.79;100558.81;6217309;23;20083;-66
2023/07/23 05:25:10;;;;;;;6.90;4.00;;;;;;;15.86;76.35;100559.66;6217703;23;20453;-66
2023/07/23 05:27:35;;;;;;;5.30;3.50;;;;;;;15.86;76.60;100560.56;6192493;23;20008;-66
2023/07/23 05:30:01;;;;;;;5.05;3.53;;;;;;;15.87;75.93;100570.16;6192449;23;20015;-66
2023/07/23 05:32:27;;;;;;;6.20;3.88;;;;;;;15.88;75.74;100566.63;6168088;23;20016;-66
2023/07/23 05:34:53;;;;;;;9.48;3.90;;;;;;;15.90;75.47;100566.56;6192583;23;20015;-66
2023/07/23 05:37:19;;;;;;;5.22;3.67;;;;;;;15.89;75.42;100570.16;6217989;23;20008;-67
2023/07/23 05:39:45;;;;;;;7.80;4.00;;;;;;;15.86;76.31;100551.75;6167259;23;20011;-66
2023/07/23 05:42:10;;;;;;;4.80;3.30;;;;;;;15.87;76.06;100551.69;6168337;23;20012;-66
2023/07/23 05:44:36;;;;;;;6.07;4.03;;;;;;;15.86;76.45;100557.03;6168060;23;20016;-66
2023/07/23 05:47:01;;;;;;;5.97;3.92;;;;;;;15.86;76.98;100559.66;6218400;23;20012;-67
2023/07/23 05:49:28;;;;;;;6.53;4.10;;;;;;;15.86;78.18;100562.31;6168475;23;20012;-66
2023/07/23 05:51:53;;;;;;;5.43;3.40;;;;;;;15.86;76.92;100555.25;6192012;23;20209;-67
2023/07/23 05:54:19;;;;;;;7.43;3.78;;;;;;;15.86;77.10;100552.63;6166020;22;20004;-67
2023/07/23 05:56:44;;;;;;;5.55;3.95;;;;;;;15.86;78.37;100565.84;6193008;23;20008;-66
2023/07/23 05:59:10;;;;;;;5.88;3.75;;;;;;;15.84;77.03;100561.53;6166677;23;20030;-66
2023/07/23 06:01:36;;;;;;;10.20;3.90;;;;;;;15.83;77.19;100551.88;6192544;23;20016;-66
2023/07/23 06:04:01;;;;;;;7.28;3.97;;;;;;;15.81;77.23;100561.63;6166662;22;20015;-67
2023/07/23 06:06:30;;;;;;;7.10;3.72;;;;;;;15.80;76.49;100555.47;6191731;23;20099;-66
2023/07/23 06:08:56;;;;;;;7.72;4.47;;;;;;;15.74;78.20;100550.41;6216360;23;20453;-66
2023/07/23 06:11:22;;;;;;;6.40;3.92;;;;;;;15.73;78.33;100554.84;6217016;23;20000;-67
2023/07/23 06:13:47;;;;;;;8.60;3.90;;;;;;;15.72;79.01;100560.19;6166987;23;20011;-66
2023/07/23 06:16:13;;;;;;;6.55;4.20;;;;;;;15.75;78.63;100552.13;6217209;23;20008;-67
2023/07/23 06:18:38;;;;;;;5.55;4.20;;;;;;;15.75;78.39;100552.13;6191898;23;20008;-66
2023/07/23 06:21:04;;;;;;;8.30;3.83;;;;;;;15.76;78.60;100559.16;6192789;23;20365;-67
2023/07/23 06:23:30;;;;;;;6.80;4.25;;;;;;;15.78;78.75;100557.28;6192407;23;20130;-66
2023/07/23 06:25:56;;;;;;;6.13;3.67;;;;;;;15.76;78.28;100557.34;6167347;23;20042;-66
2023/07/23 06:28:22;;;;;;;5.65;3.40;;;;;;;15.76;77.56;100560.00;6166892;23;20008;-67
2023/07/23 06:30:52;;;;;;;7.60;3.85;;;;;;;15.71;79.48;100563.72;6192128;23;20446;-67
2023/07/23 06:33:17;;;;;;;7.30;4.03;;;;;;;15.68;79.87;100569.97;6167675;23;20011;-66
2023/07/23 06:35:43;;;;;;;5.82;4.13;;;;;;;15.56;82.28;100573.94;6167693;23;20008;-66
2023/07/23 06:38:09;;;;;;;8.02;3.63;;;;;;;15.53;80.77;100574.06;6217504;23;20019;-66
2023/07/23 06:40:34;;;;;;;6.18;4.13;;;;;;;15.48;82.85;100565.44;6193242;23;20418;-67
2023/07/23 06:43:00;;;;;;;5.10;3.95;;;;;;;15.45;81.70;100569.97;6193746;23;20090;-66
2023/07/23 06:45:25;;;;;;;5.45;3.80;;;;;;;15.44;83.25;100577.03;6193868;23;20008;-66
2023/07/23 06:47:51;;;;;;;6.45;3.47;;;;;;;15.46;81.19;100576.97;6168739;23;20039;-67
2023/07/23 06:50:18;;;;;;;6.78;4.15;;;;;;;15.42;82.36;100579.72;6194482;23;20094;-67
2023/07/23 06:52:44;;;;;;;7.15;4.13;;;;;;;15.44;82.70;100578.81;6169329;23;20459;-67
2023/07/23 06:55:09;;;;;;;5.03;4.45;;;;;;;15.46;82.49;100591.06;6193108;23;20135;-67
2023/07/23 06:57:34;;;;;;;8.73;4.03;;;;;;;15.48;82.79;100581.28;6193290;23;20078;-66
2023/07/23 07:00:00;;;;;;;8.10;4.47;;;;;;;15.50;82.78;100579.47;6169304;23;20569;-67
2023/07/23 07:02:25;;;;;;;5.82;3.78;;;;;;;15.52;82.16;100580.25;6192582;23;20355;-66
2023/07/23 07:04:51;;;;;;;5.97;4.03;;;;;;;15.53;82.00;100584.63;6168927;23;20012;-66
2023/07/23 07:07:17;;;;;;;7.90;4.43;;;;;;;15.51;82.91;100586.44;6194084;23;20011;-66
2023/07/23 07:09:42;;;;;;;5.40;4.00;;;;;;;15.50;82.86;100592.66;6193757;23;20418;-66
2023/07/23 07:12:08;;;;;;;6.93;4.30;;;;;;;15.45;84.20;100596.38;6193967;23;20314;-66
2023/07/23 07:14:33;;;;;;;8.43;4.40;;;;;;;15.35;86.37;100595.84;6194314;23;20030;-67
2023/07/23 07:16:59;;;;;;;6.93;4.53;;;;;;;15.31;87.98;100594.22;6194882;23;20012;-67
2023/07/23 07:19:24;;;;;;;6.72;4.43;;;;;;;15.20;88.01;100595.47;6193842;23;20016;-67
2023/07/23 07:21:50;;;;;;;6.85;4.70;;;;;;;15.11;88.63;100589.66;6169564;23;20019;-67
2023/07/23 07:24:17;;;;;;;9.80;4.95;;;;;;;15.06;89.88;100592.44;6193578;22;20000;-67
2023/07/23 07:26:43;;;;;;;9.25;5.10;;;;;;;15.00;90.88;100590.03;6246212;23;20012;-67
2023/07/23 07:29:08;;;;;;;9.27;5.30;;;;;;;14.96;91.87;100591.06;6194034;23;20008;-67
2023/07/23 07:31:34;;;;;;;7.35;5.13;;;;;;;14.88;92.95;100591.28;6192967;23;20027;-67
2023/07/23 07:33:59;;;;;;;9.43;5.53;;;;;;;14.83;93.37;100585.31;6167010;23;20004;-67
2023/07/23 07:36:25;;;;;;;7.80;5.10;;;;;;;14.82;93.61;100597.63;6168114;23;20015;-67
2023/07/23 07:38:50;;;;;;;7.63;5.13;;;;;;;14.84;94.12;100585.28;6168367;23;20004;-67
2023/07/23 07:41:16;;;;;;;7.50;5.70;;;;;;;14.79;93.55;100594.25;6168780;23;20345;-66
2023/07/23 07:43:41;;;;;;;7.50;5.53;;;;;;;14.79;94.05;100597.72;6192623;23;20012;-68
2023/07/23 07:46:08;;;;;;;6.78;5.22;;;;;;;14.82;95.65;100600.28;6168550;23;20426;-68
2023/07/23 07:48:37;;;;;;;7.18;5.32;;;;;;;14.84;93.96;100587.03;6218837;23;20016;-68
2023/07/23 07:51:05;;;;;;;8.45;5.70;;;;;;;14.87;94.51;100586.94;6169067;23;20449;-68
2023/07/23 07:53:32;;;;;;;8.02;5.93;;;;;;;14.90;93.93;100592.13;6218844;23;20084;-68
2023/07/23 07:55:59;;;;;;;8.15;6.03;;;;;;;14.94;93.96;100584.94;6193069;23;20008;-68
2023/07/23 07:58:26;;;;;;;9.23;6.10;;;;;;;14.98;93.12;100591.84;6193061;23;20042;-68
2023/07/23 08:01:02;;;;;;;8.68;5.50;;;;;;;15.03;93.20;100589.94;6218502;23;20004;-68
2023/07/23 08:03:29;;;;;;;7.05;5.60;;;;;;;15.11;93.58;100585.22;6192450;23;20340;-68
2023/07/23 08:05:55;;;;;;;8.75;5.63;;;;;;;15.16;91.91;100585.94;6217841;23;20004;-68
2023/07/23 08:08:33;;;;;;;7.75;5.68;;;;;;;15.21;92.06;100591.94;6217870;23;20007;-68
2023/07/23 08:11:01;;;;;;;7.28;6.00;;;;;;;15.22;92.68;100575.16;6217271;23;20095;-68
2023/07/23 08:13:27;;;;;;;10.00;6.38;;;;;;;15.27;92.79;100576.78;6216636;23;20011;-68
2023/07/23 08:15:54;;;;;;;8.35;6.20;;;;;;;15.32;92.57;100593.31;6191611;23;20430;-68
2023/07/23 08:18:20;;;;;;;9.15;6.07;;;;;;;15.36;92.76;100587.88;6217062;23;20015;-68
2023/07/23 08:20:45;;;;;;;7.78;5.95;;;;;;;15.40;93.10;100583.31;6192273;23;20346;-68
2023/07/23 08:23:11;;;;;;;7.50;6.15;;;;;;;15.42;93.57;100589.44;6192190;23;20288;-68
2023/07/23 08:25:38;;;;;;;7.55;6.22;;;;;;;15.50;95.16;100582.09;6191605;23;20056;-68
2023/07/23 08:28:06;;;;;;;8.30;5.82;;;;;;;15.50;94.43;100590.03;6192905;23;20346;-68
2023/07/23 08:30:32;;;;;;;7.55;5.53;;;;;;;15.51;93.86;100585.59;6193003;23;20041;-68
2023/07/23 08:32:59;;;;;;;7.30;5.35;;;;;;;15.49;94.75;100587.44;6217516;23;20388;-68
2023/07/23 08:35:26;;;;;;;5.72;4.75;;;;;;;15.50;94.49;100587.38;6217065;23;20376;-68
2023/07/23 08:37:55;;;;;;;7.65;5.30;;;;;;;15.45;94.27;100591.97;6217378;23;20020;-68
2023/07/23 08:42:56;;;;;;;7.03;5.15;;;;;;;15.54;95.76;100578.44;6211043;23;20370;-68
2023/07/23 08:45:43;;;;;;;6.47;5.07;;;;;;;15.51;94.47;100589.09;6232705;22;20018;-68
2023/07/23 08:48:15;;;;;;;5.90;4.70;;;;;;;15.52;95.43;100590.81;6247622;22;20341;-68
2023/07/23 08:50:46;;;;;;;7.03;4.80;;;;;;;15.52;95.36;100589.97;6246814;22;19999;-68
2023/07/23 08:53:13;;;;;;;8.05;4.70;;;;;;;15.58;95.57;100587.94;6247386;22;20066;-68
2023/07/23 08:55:43;;;;;;;5.45;4.30;;;;;;;15.57;94.90;100578.31;6221695;22;20011;-68
2023/07/23 08:58:13;;;;;;;4.10;3.70;;;;;;;15.56;95.29;100589.78;6248087;22;20433;-68
2023/07/23 09:00:41;;;;;;;6.15;4.25;;;;;;;15.57;95.25;100588.00;6246465;22;20089;-68
2023/07/23 09:03:08;;;;;;;4.82;3.20;;;;;;;15.59;95.15;100597.59;6222874;22;20031;-68
2023/07/23 09:05:34;;;;;;;4.28;3.17;;;;;;;15.58;95.31;100581.81;6247584;22;20003;-68
2023/07/23 09:08:02;;;;;;;4.93;3.25;;;;;;;15.59;95.42;100596.75;6248009;22;20010;-68
2023/07/23 09:10:27;;;;;;;3.95;3.35;;;;;;;15.61;95.54;100597.53;6246353;22;20003;-68
2023/07/23 09:12:53;;;;;;;4.40;3.33;;;;;;;15.65;96.66;100593.03;6248074;22;20394;-68
2023/07/23 09:15:18;;;;;;;4.25;3.50;;;;;;;15.64;97.53;100591.28;6222617;22;20015;-68
2023/07/23 09:17:49;;;;;;;3.90;3.03;;;;;;;15.65;98.08;100600.94;6197154;22;20004;-68
2023/07/23 09:20:17;;;;;;;5.88;3.53;;;;;;;15.65;97.97;100598.31;6247880;22;20003;-68
2023/07/23 09:22:43;;;;;;;3.67;3.15;;;;;;;15.67;98.51;100599.94;6221117;22;20231;-68
2023/07/23 09:25:09;;;;;;;3.55;3.20;;;;;;;15.66;98.39;100589.44;6197253;22;20442;-67
2023/07/23 09:27:40;;;;;;;5.47;3.80;;;;;;;15.64;98.97;100596.56;6221910;22;20008;-68
2023/07/23 09:30:06;;;;;;;6.35;3.92;;;;;;;15.61;99.57;100592.25;6274917;22;20310;-68
2023/07/23 09:32:32;;;;;;;5.03;3.08;;;;;;;15.64;99.91;100596.56;6222655;22;20008;-68
2023/07/23 09:34:59;;;;;;;3.47;2.75;;;;;;;15.65;99.70;100598.31;6248089;22;20011;-68
2023/07/23 09:37:28;;;;;;;4.47;3.40;;;;;;;15.63;100.00;100600.13;6220852;22;20008;-68
2023/07/23 09:39:56;;;;;;;4.53;3.28;;;;;;;15.64;100.00;100608.00;6221279;22;20015;-68
2023/07/23 09:42:23;;;;;;;5.60;3.78;;;;;;;15.69;100.00;100607.84;6247663;22;20007;-68
2023/07/23 09:44:49;;;;;;;4.57;3.35;;;;;;;15.68;100.00;100604.31;6222105;22;20020;-68
2023/07/23 09:47:33;;;;;;;4.20;3.10;;;;;;;15.72;100.00;100608.56;6246023;22;20338;-69
2023/07/23 09:49:59;;;;;;;3.75;3.03;;;;;;;15.63;100.00;100598.38;6246770;22;20000;-68
2023/07/23 09:52:34;;;;;;;3.80;3.10;;;;;;;15.63;100.00;100602.75;6248468;22;20019;-68
2023/07/23 09:55:00;;;;;;;3.92;3.50;;;;;;;15.60;100.00;100606.38;6245896;22;20062;-68
2023/07/23 09:57:28;;;;;;;4.95;3.20;;;;;;;15.62;100.00;100601.91;6195554;22;20012;-68
2023/07/23 09:59:56;;;;;;;4.05;3.38;;;;;;;15.65;100.00;100603.59;6221992;22;20067;-68
2023/07/23 10:02:25;;;;;;;4.57;3.42;;;;;;;15.63;100.00;100606.28;6246715;22;20046;-68
2023/07/23 10:04:51;;;;;;;4.88;3.67;;;;;;;15.65;100.00;100603.59;6247963;22;20031;-68
2023/07/23 10:07:16;;;;;;;5.90;3.40;;;;;;;15.63;100.00;100611.56;6274684;22;20008;-69
2023/07/23 10:09:42;;;;;;;4.43;3.00;;;;;;;15.64;100.00;100608.00;6197108;22;20425;-68
2023/07/23 10:12:08;;;;;;;3.90;2.80;;;;;;;15.65;100.00;100604.44;6223167;22;20166;-68
2023/07/23 10:14:33;;;;;;;4.43;3.70;;;;;;;15.68;100.00;100604.31;6223158;22;20018;-69
2023/07/23 10:17:02;;;;;;;3.40;3.10;;;;;;;15.64;100.00;100612.41;6249778;22;20004;-68
2023/07/23 10:19:27;;;;;;;3.75;2.80;;;;;;;15.59;100.00;100609.97;6224397;22;20007;-69
2023/07/23 10:21:53;;;;;;;4.13;3.00;;;;;;;15.54;100.00;100612.78;6248599;22;20008;-68
2023/07/23 10:24:18;;;;;;;3.53;2.90;;;;;;;15.52;100.00;100614.59;6198026;22;20007;-69
2023/07/23 10:26:48;;;;;;;3.83;2.90;;;;;;;15.50;100.00;100610.28;6223292;22;20065;-68
2023/07/23 10:29:21;;;;;;;4.00;2.90;;;;;;;15.53;100.00;100613.69;6248917;22;20394;-69
2023/07/23 10:31:47;;;;;;;3.42;2.80;;;;;;;15.53;100.00;100616.31;6225034;22;20069;-68
2023/07/23 10:34:21;;;;;;;3.45;2.88;;;;;;;15.58;100.00;100619.63;6248670;22;20333;-69
2023/07/23 10:37:25;;;;;;;2.83;2.50;;;;;;;15.62;100.00;100627.47;6248384;22;20007;-68
2023/07/23 10:39:55;;;;;;;3.08;2.78;;;;;;;15.63;100.00;100623.91;6248327;22;20363;-69
2023/07/23 10:42:41;;;;;;;5.40;2.80;;;;;;;15.64;100.00;100620.34;6248925;22;20004;-68
2023/07/23 10:45:22;;;;;;;3.45;2.70;;;;;;;15.68;100.00;100614.88;6247882;22;20295;-68
2023/07/23 10:48:00;;;;;;;5.28;2.70;;;;;;;15.69;100.00;100631.63;6274136;22;20046;-68
2023/07/23 10:50:33;;;;;;;3.05;2.60;;;;;;;15.67;100.00;100622.88;6246167;22;20003;-69
2023/07/23 10:53:05;;;;;;;3.10;2.70;;;;;;;15.72;100.00;100620.94;6223322;22;20019;-68
2023/07/23 10:55:50;;;;;;;3.35;2.58;;;;;;;15.78;100.00;100625.97;6223599;22;20089;-68
2023/07/23 10:58:21;;;;;;;3.70;3.13;;;;;;;15.79;100.00;100617.19;6223135;22;20008;-69
2023/07/23 11:00:51;;;;;;;2.95;2.65;;;;;;;15.84;100.00;100617.84;6222417;22;20008;-68
2023/07/23 11:03:18;;;;;;;3.00;2.70;;;;;;;15.91;100.00;100619.34;6247864;22;20016;-68
2023/07/23 11:05:48;;;;;;;3.17;2.70;;;;;;;15.98;100.00;100619.13;6222146;22;20012;-68
2023/07/23 11:08:18;;;;;;;3.92;3.05;;;;;;;16.02;100.00;100616.31;6239400;22;20018;-68
2023/07/23 11:10:58;;;;;;;3.95;3.08;;;;;;;16.07;100.00;100621.41;6221680;22;20020;-68
2023/07/23 11:13:26;;;;;;;3.97;3.40;;;;;;;16.10;100.00;100630.09;6248528;22;20007;-69
2023/07/23 11:15:52;;;;;;;3.35;3.03;;;;;;;16.16;100.00;100617.56;6248940;22;20019;-68
2023/07/23 11:18:19;;;;;;;4.88;3.42;;;;;;;16.22;100.00;100630.53;6222857;22;20031;-68
2023/07/23 11:20:50;;;;;;;4.57;3.20;;;;;;;16.26;100.00;100627.72;6247679;22;20015;-69